Terminal Aerodrome Forecast
Issued by NWS

Home | Current Version | Previous Version | Text Only | Print | Product List | Glossary On
Versions: 1 2 3 4 5 6 7 8 9 10 11 12 13 14 15 16 17 18 19 20 21 22 23
000
FTUS45 KCYS 201135
TAFLAR
TAF
KLAR 201135Z 2012/2112 24012KT P6SM BKN050
     FM201600 25015G25KT P6SM BKN050
     FM210000 25010KT P6SM BKN050
     FM210900 24014G24KT P6SM BKN050=

USA.gov is the U.S. government's official web portal to all federal, state and local government web resources and services.